createdAt,value
2022-12-20T00:00:48.449Z,3.05
2022-12-20T00:02:52.549Z,2.98
2022-12-20T00:04:55.270Z,3.03
2022-12-20T00:06:57.880Z,2.95
2022-12-20T00:09:02.491Z,2.90
2022-12-20T00:11:07.541Z,2.80
2022-12-20T00:13:10.856Z,2.83
2022-12-20T00:15:13.544Z,2.83
2022-12-20T00:17:16.342Z,2.89
2022-12-20T00:19:20.513Z,3.00
2022-12-20T00:21:23.956Z,2.82
2022-12-20T00:23:26.684Z,2.88
2022-12-20T00:25:29.548Z,2.81
2022-12-20T00:27:32.283Z,2.80
2022-12-20T00:29:35.178Z,2.87
2022-12-20T00:31:37.989Z,2.97
2022-12-20T00:33:41.899Z,2.82
2022-12-20T00:35:45.999Z,2.65
2022-12-20T00:37:48.664Z,2.57
2022-12-20T00:39:51.303Z,2.48
2022-12-20T00:41:54.119Z,2.45
2022-12-20T00:43:57.120Z,2.46
2022-12-20T00:46:00.227Z,2.41
2022-12-20T00:48:02.877Z,2.39
2022-12-20T00:50:06.761Z,2.34
2022-12-20T00:52:10.816Z,2.40
2022-12-20T00:54:13.496Z,2.50
2022-12-20T00:56:16.855Z,2.49
2022-12-20T00:58:19.521Z,2.50
2022-12-20T01:00:22.445Z,2.68
2022-12-20T01:02:25.846Z,2.80
2022-12-20T01:04:28.611Z,2.63
2022-12-20T01:06:32.514Z,2.72
2022-12-20T01:08:36.643Z,2.75
2022-12-20T01:10:39.381Z,2.66
2022-12-20T01:12:41.957Z,2.62
2022-12-20T01:14:44.717Z,2.47
2022-12-20T01:16:48.989Z,2.51
2022-12-20T01:18:52.546Z,2.47
2022-12-20T01:21:02.751Z,2.51
2022-12-20T01:23:05.517Z,2.50
2022-12-20T01:25:09.909Z,2.56
2022-12-20T01:27:12.570Z,2.61
2022-12-20T01:29:16.202Z,2.58
2022-12-20T01:31:20.380Z,2.57
2022-12-20T01:33:23.568Z,2.52
2022-12-20T01:35:26.468Z,2.45
2022-12-20T01:37:29.943Z,2.42
2022-12-20T01:39:32.630Z,2.53
2022-12-20T01:41:38.682Z,2.53
2022-12-20T01:43:50.705Z,2.41
2022-12-20T01:45:53.626Z,2.45
2022-12-20T01:47:57.325Z,2.40
2022-12-20T01:50:02.528Z,2.46
2022-12-20T01:52:08.032Z,2.40
2022-12-20T01:54:15.784Z,2.41
2022-12-20T01:56:18.581Z,2.41
2022-12-20T01:58:23.177Z,2.39
2022-12-20T02:00:25.986Z,2.42
2022-12-20T02:02:29.265Z,2.46
2022-12-20T02:04:32.200Z,2.43
2022-12-20T02:06:34.894Z,2.35
2022-12-20T02:08:37.637Z,2.32
2022-12-20T02:10:52.729Z,2.35
2022-12-20T02:13:04.708Z,2.33
2022-12-20T02:15:26.464Z,2.29
2022-12-20T02:17:43.316Z,2.35
2022-12-20T02:20:07.658Z,2.38
2022-12-20T02:22:17.237Z,2.43
2022-12-20T02:25:11.406Z,2.49
2022-12-20T02:27:34.430Z,2.32
2022-12-20T02:29:41.253Z,2.26
2022-12-20T02:31:51.445Z,2.24
2022-12-20T02:33:56.984Z,2.23
2022-12-20T02:35:59.811Z,2.28
2022-12-20T02:38:05.087Z,2.31
2022-12-20T02:40:09.416Z,2.48
2022-12-20T02:42:14.889Z,2.46
2022-12-20T02:44:38.506Z,2.49
2022-12-20T02:46:41.698Z,2.45
2022-12-20T02:48:47.994Z,2.47
2022-12-20T02:50:54.352Z,2.42
2022-12-20T02:52:58.177Z,2.33
2022-12-20T02:55:01.736Z,2.28
2022-12-20T02:57:11.111Z,2.32
2022-12-20T02:59:17.476Z,2.24
2022-12-20T03:01:25.904Z,2.31
2022-12-20T03:03:29.235Z,2.47
2022-12-20T03:05:35.949Z,2.55
2022-12-20T03:07:38.575Z,2.71
2022-12-20T03:09:45.239Z,2.93
2022-12-20T03:11:48.031Z,3.16
2022-12-20T03:13:50.953Z,3.25
2022-12-20T03:15:53.835Z,3.40
2022-12-20T03:17:56.597Z,3.63
2022-12-20T03:19:59.321Z,3.61
2022-12-20T03:22:03.335Z,3.66
2022-12-20T03:24:06.555Z,3.56
2022-12-20T03:26:09.297Z,3.43
2022-12-20T03:28:11.984Z,3.51
2022-12-20T03:30:16.106Z,3.53
2022-12-20T03:32:18.852Z,3.78
2022-12-20T03:34:21.567Z,3.81
2022-12-20T03:36:24.907Z,3.85
2022-12-20T03:38:28.910Z,3.95
2022-12-20T03:40:31.632Z,3.80
2022-12-20T03:42:34.539Z,4.03
2022-12-20T03:44:37.275Z,4.11
2022-12-20T03:46:40.156Z,4.14
2022-12-20T03:48:42.954Z,4.21
2022-12-20T03:50:45.801Z,4.21
2022-12-20T03:52:48.446Z,4.27
2022-12-20T03:54:52.454Z,4.37
2022-12-20T03:56:55.319Z,4.45
2022-12-20T03:58:57.934Z,4.28
2022-12-20T04:01:00.629Z,4.26
2022-12-20T04:03:03.393Z,4.29
2022-12-20T04:05:06.857Z,4.18
2022-12-20T04:07:09.687Z,4.06
2022-12-20T04:09:12.446Z,4.00
2022-12-20T04:11:17.092Z,4.01
2022-12-20T04:13:19.775Z,3.91
2022-12-20T04:15:22.589Z,3.81
2022-12-20T04:17:25.319Z,3.73
2022-12-20T04:19:27.915Z,3.81
2022-12-20T04:21:32.473Z,3.88
2022-12-20T04:23:35.760Z,4.01
2022-12-20T04:25:38.456Z,4.19
2022-12-20T04:27:42.504Z,4.19
2022-12-20T04:29:45.228Z,4.26
2022-12-20T04:31:48.035Z,4.09
2022-12-20T04:33:50.818Z,3.98
2022-12-20T04:35:53.571Z,3.80
2022-12-20T04:37:56.148Z,3.79
2022-12-20T04:39:59.688Z,3.94
2022-12-20T04:42:02.411Z,3.92
2022-12-20T04:44:06.457Z,3.84
2022-12-20T04:46:09.159Z,3.89
2022-12-20T04:48:46.021Z,3.87
2022-12-20T04:50:34.579Z,3.92
2022-12-20T04:52:54.773Z,3.95
2022-12-20T04:54:57.384Z,4.00
2022-12-20T04:57:00.162Z,4.01
2022-12-20T04:59:03.305Z,4.09
2022-12-20T05:01:07.597Z,4.37
2022-12-20T05:03:10.573Z,4.52
2022-12-20T05:05:14.114Z,4.61
2022-12-20T05:07:16.899Z,4.59
2022-12-20T05:09:19.799Z,4.56
2022-12-20T05:11:22.477Z,4.56
2022-12-20T05:13:25.175Z,4.62
2022-12-20T05:15:27.995Z,4.73
2022-12-20T05:17:32.104Z,4.69
2022-12-20T05:19:35.155Z,4.81
2022-12-20T05:21:55.540Z,4.87
2022-12-20T05:24:16.088Z,5.20
2022-12-20T05:26:18.797Z,5.10
2022-12-20T05:28:21.554Z,5.14
2022-12-20T05:30:24.896Z,5.18
2022-12-20T05:32:27.607Z,5.22
2022-12-20T05:34:31.874Z,5.16
2022-12-20T05:36:34.610Z,5.34
2022-12-20T05:38:37.531Z,5.45
2022-12-20T05:40:41.043Z,5.36
2022-12-20T05:42:43.751Z,5.37
2022-12-20T05:44:46.412Z,5.48
2022-12-20T05:46:49.376Z,5.61
2022-12-20T05:48:52.585Z,5.67
2022-12-20T05:50:56.662Z,5.60
2022-12-20T05:52:59.455Z,5.58
2022-12-20T05:55:02.258Z,5.61
2022-12-20T05:57:05.454Z,5.58
2022-12-20T05:59:09.435Z,5.63
2022-12-20T06:01:12.094Z,5.53
2022-12-20T06:03:16.134Z,5.42
2022-12-20T06:05:19.726Z,5.35
2022-12-20T06:07:24.468Z,5.24
2022-12-20T06:09:27.085Z,5.22
2022-12-20T06:11:30.558Z,5.18
2022-12-20T06:13:33.491Z,5.06
2022-12-20T06:15:36.161Z,5.02
2022-12-20T06:17:38.804Z,5.09
2022-12-20T06:19:42.328Z,5.07
2022-12-20T06:21:45.063Z,5.09
2022-12-20T06:23:49.377Z,5.06
2022-12-20T06:25:52.521Z,5.04
2022-12-20T06:27:55.393Z,5.01
2022-12-20T06:29:58.105Z,5.06
2022-12-20T06:32:01.186Z,5.00
2022-12-20T06:34:03.958Z,4.89
2022-12-20T06:36:07.265Z,4.79
2022-12-20T06:38:09.919Z,4.83
2022-12-20T06:40:15.606Z,4.90
2022-12-20T06:42:18.520Z,4.91
2022-12-20T06:44:21.205Z,4.83
2022-12-20T06:46:27.365Z,4.79
2022-12-20T06:48:30.880Z,4.78
2022-12-20T06:50:33.527Z,4.74
2022-12-20T06:52:36.416Z,4.68
2022-12-20T06:54:39.600Z,4.67
2022-12-20T06:56:43.952Z,4.77
2022-12-20T06:58:47.643Z,4.78
2022-12-20T07:00:50.670Z,4.81
2022-12-20T07:02:53.538Z,4.81
2022-12-20T07:04:56.929Z,4.83
2022-12-20T07:06:59.747Z,4.86
2022-12-20T07:09:02.646Z,4.81
2022-12-20T07:11:07.085Z,4.79
2022-12-20T07:13:11.271Z,4.78
2022-12-20T07:15:14.100Z,4.79
2022-12-20T07:17:17.106Z,4.76
2022-12-20T07:19:19.803Z,4.91
2022-12-20T07:21:23.222Z,4.80
2022-12-20T07:23:25.891Z,4.75
2022-12-20T07:25:28.926Z,4.78
2022-12-20T07:27:31.688Z,4.74
2022-12-20T07:29:36.187Z,4.76
2022-12-20T07:31:39.133Z,4.92
2022-12-20T07:33:41.821Z,4.87
2022-12-20T07:35:49.407Z,4.92
2022-12-20T07:37:55.163Z,4.81
2022-12-20T07:39:57.794Z,4.78
2022-12-20T07:42:00.572Z,4.87
2022-12-20T07:44:03.531Z,4.82
2022-12-20T07:46:08.993Z,4.91
2022-12-20T07:48:16.242Z,4.95
2022-12-20T07:50:24.623Z,4.90
2022-12-20T07:52:29.735Z,4.98
2022-12-20T07:54:37.132Z,5.07
2022-12-20T07:56:43.828Z,5.18
2022-12-20T07:58:46.887Z,5.08
2022-12-20T08:00:50.031Z,5.15
2022-12-20T08:03:01.891Z,5.24
2022-12-20T08:05:06.719Z,5.22
2022-12-20T08:07:09.923Z,5.32
2022-12-20T08:09:14.570Z,5.26
2022-12-20T08:11:18.311Z,5.22
2022-12-20T08:13:21.040Z,5.09
2022-12-20T08:15:24.185Z,5.11
2022-12-20T08:17:26.984Z,5.11
2022-12-20T08:19:32.910Z,5.18
2022-12-20T08:21:35.834Z,5.28
2022-12-20T08:23:38.433Z,5.18
2022-12-20T08:25:42.061Z,5.22
2022-12-20T08:27:45.254Z,5.30
2022-12-20T08:29:47.933Z,5.28
2022-12-20T08:31:50.993Z,5.39
2022-12-20T08:33:55.713Z,5.35
2022-12-20T08:36:00.685Z,5.30
2022-12-20T08:38:03.413Z,5.33
2022-12-20T08:40:08.528Z,5.35
2022-12-20T08:42:11.549Z,5.47
2022-12-20T08:44:14.817Z,5.55
2022-12-20T08:46:17.754Z,5.53
2022-12-20T08:48:20.394Z,5.62
2022-12-20T08:50:23.007Z,5.64
2022-12-20T08:52:27.259Z,5.57
2022-12-20T08:54:30.319Z,5.59
2022-12-20T08:56:33.077Z,5.58
2022-12-20T08:58:36.062Z,5.70
2022-12-20T09:00:38.841Z,5.74
2022-12-20T09:02:42.646Z,5.74
2022-12-20T09:04:45.544Z,5.93
2022-12-20T09:06:48.462Z,6.03
2022-12-20T09:08:53.273Z,6.09
2022-12-20T09:11:04.230Z,6.01
2022-12-20T09:13:06.975Z,6.08
2022-12-20T09:15:11.833Z,5.98
2022-12-20T09:17:14.473Z,5.91
2022-12-20T09:19:17.504Z,5.91
2022-12-20T09:21:21.116Z,5.82
2022-12-20T09:23:23.757Z,5.64
2022-12-20T09:25:27.876Z,5.89
2022-12-20T09:27:30.523Z,5.55
2022-12-20T09:29:35.696Z,5.69
2022-12-20T09:31:38.725Z,5.88
2022-12-20T09:33:42.491Z,6.07
2022-12-20T09:35:46.362Z,6.16
2022-12-20T09:37:49.050Z,6.23
2022-12-20T09:39:51.845Z,6.18
2022-12-20T09:41:55.892Z,6.14
2022-12-20T09:44:00.264Z,6.13
2022-12-20T09:46:04.651Z,6.16
2022-12-20T09:48:12.594Z,6.30
2022-12-20T09:50:18.750Z,6.33
2022-12-20T09:52:31.149Z,6.38
2022-12-20T09:54:42.219Z,6.43
2022-12-20T09:56:59.193Z,6.54
2022-12-20T09:59:05.331Z,6.58
2022-12-20T10:01:21.556Z,6.67
2022-12-20T10:03:31.235Z,6.73
2022-12-20T10:05:41.735Z,7.04
2022-12-20T10:07:53.713Z,7.28
2022-12-20T10:10:19.401Z,6.92
2022-12-20T10:12:34.590Z,7.20
2022-12-20T10:15:01.948Z,6.95
2022-12-20T10:17:09.795Z,6.93
2022-12-20T10:19:36.502Z,7.02
2022-12-20T10:21:48.942Z,7.09
2022-12-20T10:24:01.474Z,7.03
2022-12-20T10:26:10.291Z,7.18
2022-12-20T10:28:16.572Z,7.09
2022-12-20T10:30:22.761Z,7.09
2022-12-20T10:32:27.806Z,7.05
2022-12-20T10:34:36.952Z,7.10
2022-12-20T10:36:41.942Z,7.09
2022-12-20T10:38:46.506Z,7.06
2022-12-20T10:43:24.688Z,7.15
2022-12-20T10:45:37.594Z,7.06
2022-12-20T10:47:44.186Z,6.99
2022-12-20T10:49:46.855Z,6.94
2022-12-20T10:51:53.692Z,6.80
2022-12-20T10:53:58.044Z,6.71
2022-12-20T10:56:21.262Z,6.75
2022-12-20T10:58:35.281Z,6.71
2022-12-20T11:00:39.554Z,6.74
2022-12-20T11:02:43.320Z,6.60
2022-12-20T11:04:58.931Z,6.51
2022-12-20T11:07:03.147Z,6.49
2022-12-20T11:09:26.344Z,6.54
2022-12-20T11:11:29.296Z,6.42
2022-12-20T11:13:31.933Z,6.38
2022-12-20T11:15:36.960Z,6.35
2022-12-20T11:17:48.812Z,6.42
2022-12-20T11:20:26.777Z,6.58
2022-12-20T11:22:47.309Z,6.56
2022-12-20T11:24:59.827Z,6.66
2022-12-20T11:27:17.499Z,6.72
2022-12-20T11:29:33.585Z,6.84
2022-12-20T11:31:47.115Z,6.94
2022-12-20T11:34:04.477Z,7.08
2022-12-20T11:36:13.207Z,7.15
2022-12-20T11:38:25.567Z,7.13
2022-12-20T11:40:33.566Z,7.16
2022-12-20T11:42:51.214Z,7.23
2022-12-20T11:45:09.711Z,7.27
2022-12-20T11:47:33.555Z,7.29
2022-12-20T11:50:08.955Z,7.41
2022-12-20T11:52:21.539Z,7.44
2022-12-20T11:54:29.833Z,7.55
2022-12-20T11:56:43.776Z,7.54
2022-12-20T11:58:54.674Z,7.71
2022-12-20T12:01:00.426Z,7.70
2022-12-20T12:03:11.884Z,7.74
2022-12-20T12:05:22.840Z,7.75
2022-12-20T12:07:30.739Z,7.66
2022-12-20T12:09:38.619Z,7.57
2022-12-20T12:14:19.178Z,7.52
2022-12-20T12:16:27.546Z,7.62
2022-12-20T12:18:32.073Z,7.77
2022-12-20T12:20:43.712Z,7.78
2022-12-20T12:22:50.342Z,7.86
2022-12-20T12:24:59.273Z,7.76
2022-12-20T12:27:02.456Z,7.77
2022-12-20T12:29:07.608Z,7.88
2022-12-20T12:31:15.203Z,7.84
2022-12-20T12:33:25.493Z,7.84
2022-12-20T12:35:54.935Z,7.75
2022-12-20T12:38:10.537Z,7.71
2022-12-20T12:40:52.721Z,7.59
2022-12-20T12:43:11.203Z,7.57
2022-12-20T12:45:20.367Z,7.54
2022-12-20T12:47:30.742Z,7.69
2022-12-20T12:49:35.087Z,7.57
2022-12-20T12:51:43.453Z,7.59
2022-12-20T12:53:51.519Z,7.52
2022-12-20T12:56:12.817Z,7.54
2022-12-20T12:58:46.577Z,7.57
2022-12-20T13:00:53.126Z,7.60
2022-12-20T13:02:56.046Z,7.63
2022-12-20T13:05:01.852Z,7.69
2022-12-20T13:07:29.252Z,7.57
2022-12-20T13:09:42.753Z,7.65
2022-12-20T13:11:47.468Z,7.59
2022-12-20T13:13:51.904Z,7.61
2022-12-20T13:17:09.943Z,7.67
2022-12-20T13:19:15.263Z,7.73
2022-12-20T13:21:29.479Z,7.68
2022-12-20T13:23:33.512Z,7.69
2022-12-20T13:25:38.418Z,7.58
2022-12-20T13:27:41.747Z,7.53
2022-12-20T13:29:57.626Z,7.40
2022-12-20T13:32:00.250Z,7.35
2022-12-20T13:34:03.981Z,7.23
2022-12-20T13:36:32.678Z,7.20
2022-12-20T13:38:40.813Z,7.31
2022-12-20T13:40:47.058Z,7.32
2022-12-20T13:42:54.991Z,7.35
2022-12-20T13:44:58.094Z,7.36
2022-12-20T13:47:07.686Z,7.43
2022-12-20T13:49:13.816Z,7.44
2022-12-20T13:51:18.593Z,7.46
2022-12-20T13:53:23.489Z,7.57
2022-12-20T13:55:33.510Z,7.67
2022-12-20T13:57:42.814Z,7.64
2022-12-20T13:59:48.560Z,7.55
2022-12-20T14:01:55.472Z,7.61
2022-12-20T14:03:58.924Z,7.59
2022-12-20T14:06:03.963Z,7.67
2022-12-20T14:08:09.539Z,7.47
2022-12-20T14:10:22.042Z,7.53
2022-12-20T14:12:31.312Z,7.46
2022-12-20T14:14:39.347Z,7.54
2022-12-20T14:16:42.159Z,7.47
2022-12-20T14:18:49.565Z,7.51
2022-12-20T14:20:56.433Z,7.69
2022-12-20T14:23:05.887Z,7.67
2022-12-20T14:25:10.831Z,7.69
2022-12-20T14:27:15.537Z,7.74
2022-12-20T14:29:21.824Z,7.96
2022-12-20T14:31:27.175Z,7.83
2022-12-20T14:33:37.468Z,7.99
2022-12-20T14:35:47.572Z,8.15
2022-12-20T14:37:55.329Z,8.47
2022-12-20T14:40:01.637Z,8.37
2022-12-20T14:42:14.565Z,8.43
2022-12-20T14:44:22.380Z,8.51
2022-12-20T14:46:25.208Z,8.22
2022-12-20T14:48:28.366Z,8.09
2022-12-20T14:50:34.033Z,7.88
2022-12-20T14:52:39.213Z,7.83
2022-12-20T14:57:13.059Z,7.60
2022-12-20T14:59:17.404Z,7.64
2022-12-20T15:01:27.042Z,7.71
2022-12-20T15:03:30.447Z,7.48
2022-12-20T15:05:46.172Z,7.26
2022-12-20T15:07:49.238Z,7.21
2022-12-20T15:09:51.857Z,7.20
2022-12-20T15:11:55.540Z,7.19
2022-12-20T15:13:59.003Z,7.23
2022-12-20T15:16:04.542Z,7.25
2022-12-20T15:18:13.491Z,7.30
2022-12-20T15:20:17.498Z,7.39
2022-12-20T15:22:21.550Z,7.46
2022-12-20T15:24:27.289Z,7.63
2022-12-20T15:26:32.017Z,7.51
2022-12-20T15:28:34.656Z,7.57
2022-12-20T15:30:37.821Z,7.51
2022-12-20T15:32:54.160Z,7.31
2022-12-20T15:34:59.716Z,7.19
2022-12-20T15:37:03.076Z,7.16
2022-12-20T15:39:13.878Z,7.16
2022-12-20T15:41:21.203Z,7.40
2022-12-20T15:43:24.886Z,7.28
2022-12-20T15:45:28.405Z,7.12
2022-12-20T15:47:31.090Z,6.87
2022-12-20T15:49:34.126Z,6.74
2022-12-20T15:51:40.543Z,6.71
2022-12-20T15:53:43.271Z,6.68
2022-12-20T15:55:45.979Z,6.66
2022-12-20T15:57:48.811Z,6.73
2022-12-20T16:00:01.052Z,6.78
2022-12-20T16:02:10.337Z,6.75
2022-12-20T16:04:16.245Z,6.73
2022-12-20T16:06:19.007Z,6.73
2022-12-20T16:08:23.043Z,6.75
2022-12-20T16:10:25.846Z,6.75
2022-12-20T16:12:33.431Z,6.86
2022-12-20T16:14:36.220Z,6.85
2022-12-20T16:16:38.953Z,6.73
2022-12-20T16:18:41.741Z,6.82
2022-12-20T16:20:44.722Z,6.74
2022-12-20T16:22:47.566Z,6.88
2022-12-20T16:24:52.100Z,7.14
2022-12-20T16:26:54.945Z,7.17
2022-12-20T16:28:57.941Z,7.17
2022-12-20T16:31:00.952Z,7.14
2022-12-20T16:33:03.915Z,7.06
2022-12-20T16:35:07.289Z,7.03
2022-12-20T16:37:11.375Z,6.93
2022-12-20T16:39:14.152Z,6.97
2022-12-20T16:41:20.064Z,6.91
2022-12-20T16:43:22.788Z,7.15
2022-12-20T16:45:27.589Z,7.19
2022-12-20T16:47:30.434Z,7.06
2022-12-20T16:49:33.161Z,7.19
2022-12-20T16:51:40.361Z,7.30
2022-12-20T16:54:17.121Z,7.23
2022-12-20T16:56:06.137Z,7.11
2022-12-20T16:58:10.337Z,7.08
2022-12-20T17:00:20.256Z,7.05
2022-12-20T17:02:27.192Z,6.91
2022-12-20T17:04:29.931Z,6.96
2022-12-20T17:06:32.771Z,6.83
2022-12-20T17:08:53.421Z,6.89
2022-12-20T17:10:56.119Z,7.09
2022-12-20T17:12:58.934Z,7.05
2022-12-20T17:15:04.781Z,7.05
2022-12-20T17:17:07.685Z,6.98
2022-12-20T17:19:10.935Z,7.02
2022-12-20T17:21:22.955Z,7.13
2022-12-20T17:23:43.928Z,7.07
2022-12-20T17:25:52.095Z,7.24
2022-12-20T17:27:57.355Z,7.28
2022-12-20T17:30:00.015Z,7.22
2022-12-20T17:32:04.596Z,7.18
2022-12-20T17:34:14.407Z,7.23
2022-12-20T17:36:17.048Z,7.07
2022-12-20T17:38:19.764Z,7.20
2022-12-20T17:40:23.739Z,7.12
2022-12-20T17:42:31.190Z,7.18
2022-12-20T17:44:34.384Z,7.32
2022-12-20T17:46:37.096Z,7.46
2022-12-20T17:48:43.992Z,7.66
2022-12-20T17:50:46.970Z,7.64
2022-12-20T17:52:49.799Z,7.65
2022-12-20T17:54:52.429Z,7.74
2022-12-20T17:56:56.491Z,7.66
2022-12-20T17:59:00.368Z,7.73
2022-12-20T18:01:04.060Z,7.80
2022-12-20T18:03:06.926Z,7.69
2022-12-20T18:05:13.621Z,7.72
2022-12-20T18:07:16.296Z,7.59
2022-12-20T18:09:20.552Z,7.57
2022-12-20T18:11:25.594Z,7.48
2022-12-20T18:13:28.272Z,7.48
2022-12-20T18:15:31.009Z,7.44
2022-12-20T18:17:33.833Z,7.45
2022-12-20T18:19:36.657Z,7.38
2022-12-20T18:21:41.694Z,7.41
2022-12-20T18:23:45.460Z,7.29
2022-12-20T18:25:48.115Z,7.24
2022-12-20T18:27:50.849Z,7.13
2022-12-20T18:29:53.475Z,7.03
2022-12-20T18:31:56.281Z,7.01
2022-12-20T18:33:59.788Z,6.86
2022-12-20T18:36:03.694Z,6.93
2022-12-20T18:38:07.755Z,7.13
2022-12-20T18:40:11.043Z,7.27
2022-12-20T18:42:13.864Z,7.13
2022-12-20T18:44:16.742Z,7.22
2022-12-20T18:46:21.206Z,7.40
2022-12-20T18:48:25.265Z,7.38
2022-12-20T18:50:27.930Z,7.39
2022-12-20T18:52:30.667Z,7.46
2022-12-20T18:54:34.862Z,7.43
2022-12-20T18:56:39.241Z,7.44
2022-12-20T18:58:42.553Z,7.44
2022-12-20T19:00:45.318Z,7.44
2022-12-20T19:02:48.240Z,7.52
2022-12-20T19:04:51.085Z,7.41
2022-12-20T19:06:53.892Z,7.52
2022-12-20T19:08:56.599Z,7.45
2022-12-20T19:11:01.666Z,7.33
2022-12-20T19:13:06.114Z,7.27
2022-12-20T19:15:09.521Z,7.28
2022-12-20T19:17:12.166Z,7.31
2022-12-20T19:19:14.852Z,7.27
2022-12-20T19:21:20.337Z,7.28
2022-12-20T19:23:23.409Z,7.29
2022-12-20T19:25:26.123Z,7.42
2022-12-20T19:27:31.116Z,7.43
2022-12-20T19:29:33.812Z,7.47
2022-12-20T19:31:38.455Z,7.57
2022-12-20T19:33:43.083Z,7.51
2022-12-20T19:35:55.353Z,7.52
2022-12-20T19:37:58.598Z,7.56
2022-12-20T19:40:01.295Z,7.63
2022-12-20T19:42:24.129Z,7.64
2022-12-20T19:44:28.214Z,7.72
2022-12-20T19:46:31.542Z,7.67
2022-12-20T19:48:34.919Z,7.74
2022-12-20T19:50:37.618Z,7.80
2022-12-20T19:52:40.496Z,7.87
2022-12-20T19:54:43.870Z,7.76
2022-12-20T19:56:47.138Z,7.77
2022-12-20T19:58:50.366Z,7.84
2022-12-20T20:00:55.036Z,7.74
2022-12-20T20:02:57.912Z,7.70
2022-12-20T20:05:00.905Z,7.60
2022-12-20T20:07:04.555Z,7.60
2022-12-20T20:09:07.621Z,7.60
2022-12-20T20:11:11.702Z,7.78
2022-12-20T20:13:14.342Z,7.92
2022-12-20T20:15:17.032Z,7.85
2022-12-20T20:17:21.178Z,7.65
2022-12-20T20:19:23.755Z,7.77
2022-12-20T20:21:26.454Z,7.79
2022-12-20T20:23:29.113Z,7.89
2022-12-20T20:25:35.261Z,7.92
2022-12-20T20:27:38.335Z,7.79
2022-12-20T20:29:41.194Z,7.67
2022-12-20T20:31:43.932Z,7.62
2022-12-20T20:33:48.019Z,7.52
2022-12-20T20:35:57.484Z,7.36
2022-12-20T20:38:00.184Z,7.27
2022-12-20T20:40:02.970Z,7.25
2022-12-20T20:42:06.047Z,7.11
2022-12-20T20:44:08.661Z,7.03
2022-12-20T20:46:16.622Z,7.11
2022-12-20T20:48:19.615Z,7.13
2022-12-20T20:50:23.693Z,7.12
2022-12-20T20:52:26.355Z,7.08
2022-12-20T20:54:29.076Z,7.00
2022-12-20T20:56:31.701Z,7.04
2022-12-20T20:58:35.245Z,7.02
2022-12-20T21:00:38.085Z,6.99
2022-12-20T21:02:40.964Z,7.05
2022-12-20T21:04:58.700Z,6.99
2022-12-20T21:07:07.727Z,7.04
2022-12-20T21:09:11.326Z,7.07
2022-12-20T21:11:14.301Z,7.07
2022-12-20T21:13:17.393Z,7.02
2022-12-20T21:15:23.255Z,7.00
2022-12-20T21:17:26.801Z,7.08
2022-12-20T21:19:29.667Z,7.29
2022-12-20T21:21:32.642Z,7.35
2022-12-20T21:23:36.647Z,7.49
2022-12-20T21:25:39.280Z,7.64
2022-12-20T21:27:42.040Z,7.68
2022-12-20T21:29:44.904Z,7.66
2022-12-20T21:31:47.889Z,7.71
2022-12-20T21:33:50.569Z,7.56
2022-12-20T21:35:59.791Z,7.61
2022-12-20T21:38:03.334Z,7.48
2022-12-20T21:40:09.511Z,7.42
2022-12-20T21:42:12.174Z,7.51
2022-12-20T21:44:14.883Z,7.62
2022-12-20T21:46:18.198Z,7.62
2022-12-20T21:48:20.890Z,7.55
2022-12-20T21:50:23.509Z,7.64
2022-12-20T21:52:26.207Z,7.48
2022-12-20T21:54:28.864Z,7.52
2022-12-20T21:56:35.550Z,7.35
2022-12-20T21:58:38.433Z,7.44
2022-12-20T22:00:41.112Z,7.37
2022-12-20T22:02:43.937Z,7.19
2022-12-20T22:04:47.189Z,7.42
2022-12-20T22:06:49.853Z,7.50
2022-12-20T22:08:52.553Z,7.63
2022-12-20T22:11:02.102Z,7.56
2022-12-20T22:13:06.044Z,7.42
2022-12-20T22:15:09.799Z,7.54
2022-12-20T22:17:12.410Z,7.54
2022-12-20T22:19:15.545Z,7.51
2022-12-20T22:21:19.844Z,7.45
2022-12-20T22:23:22.485Z,7.41
2022-12-20T22:25:25.217Z,7.51
2022-12-20T22:27:27.842Z,7.36
2022-12-20T22:29:32.046Z,7.42
2022-12-20T22:31:36.640Z,7.38
2022-12-20T22:33:39.940Z,7.40
2022-12-20T22:35:42.624Z,7.41
2022-12-20T22:37:45.303Z,7.39
2022-12-20T22:39:49.125Z,7.57
2022-12-20T22:41:51.857Z,7.61
2022-12-20T22:43:54.748Z,7.57
2022-12-20T22:45:59.834Z,7.56
2022-12-20T22:48:02.574Z,7.60
2022-12-20T22:50:05.775Z,7.64
2022-12-20T22:52:08.736Z,7.55
2022-12-20T22:54:11.451Z,7.73
2022-12-20T22:56:14.784Z,7.68
2022-12-20T22:58:17.722Z,7.73
2022-12-20T23:00:20.721Z,7.74
2022-12-20T23:02:24.920Z,7.79
2022-12-20T23:04:27.805Z,7.87
2022-12-20T23:06:30.603Z,7.90
2022-12-20T23:08:36.263Z,7.90
2022-12-20T23:10:58.499Z,7.96
2022-12-20T23:13:19.128Z,7.94
2022-12-20T23:15:39.663Z,7.91
2022-12-20T23:17:43.791Z,8.00
2022-12-20T23:20:03.997Z,8.12
2022-12-20T23:22:24.643Z,8.07
2022-12-20T23:24:27.455Z,8.09
2022-12-20T23:26:30.115Z,7.99
2022-12-20T23:28:32.846Z,8.02
2022-12-20T23:30:35.553Z,8.06
2022-12-20T23:32:38.635Z,7.95
2022-12-20T23:34:42.683Z,8.04
2022-12-20T23:36:45.312Z,8.02
2022-12-20T23:38:48.061Z,8.08
2022-12-20T23:40:50.703Z,8.07
2022-12-20T23:42:54.632Z,8.12
2022-12-20T23:44:57.329Z,8.00
2022-12-20T23:47:00.152Z,7.88
2022-12-20T23:49:02.892Z,7.80
2022-12-20T23:51:07.628Z,7.74
2022-12-20T23:53:10.472Z,7.64
2022-12-20T23:55:13.154Z,7.80
2022-12-20T23:57:15.807Z,7.86
2022-12-20T23:59:18.549Z,7.79
